createdAt,value
2018-02-22T00:00:27.884Z,-1.26
2018-02-22T00:06:33.134Z,-1.29
2018-02-22T00:12:37.775Z,-1.17
2018-02-22T00:18:42.939Z,-1.13
2018-02-22T00:24:47.662Z,-1.13
2018-02-22T00:30:56.823Z,-1.06
2018-02-22T00:37:02.186Z,-1.13
2018-02-22T00:43:07.536Z,-1.13
2018-02-22T00:49:12.668Z,-1.12
2018-02-22T00:55:17.624Z,-1.15
2018-02-22T01:01:26.481Z,-1.05
2018-02-22T01:07:31.261Z,-1.01
2018-02-22T01:13:35.917Z,-1.04
2018-02-22T01:19:40.565Z,-1.09
2018-02-22T01:25:45.218Z,-1.18
2018-02-22T01:31:54.087Z,-1.23
2018-02-22T01:38:00.481Z,-1.33
2018-02-22T01:44:06.317Z,-1.39
2018-02-22T01:50:13.143Z,-1.34
2018-02-22T01:56:18.210Z,-1.41
2018-02-22T02:02:26.440Z,-1.53
2018-02-22T02:08:32.169Z,-1.54
2018-02-22T02:14:38.702Z,-1.55
2018-02-22T02:20:43.856Z,-1.64
2018-02-22T02:26:50.569Z,-1.67
2018-02-22T02:32:56.612Z,-1.73
2018-02-22T02:39:02.275Z,-1.68
2018-02-22T02:45:07.055Z,-1.79
2018-02-22T02:51:12.796Z,-1.73
2018-02-22T02:57:19.619Z,-1.71
2018-02-22T03:03:26.205Z,-1.89
2018-02-22T03:09:31.148Z,-1.97
2018-02-22T03:15:35.832Z,-1.91
2018-02-22T03:21:40.556Z,-2.01
2018-02-22T03:27:47.223Z,-2.05
2018-02-22T03:33:53.665Z,-2.01
2018-02-22T03:39:58.679Z,-2.07
2018-02-22T03:46:03.333Z,-2.10
2018-02-22T03:52:08.300Z,-2.10
2018-02-22T03:58:13.664Z,-2.17
2018-02-22T04:04:18.752Z,-2.16
2018-02-22T04:10:25.417Z,-2.17
2018-02-22T04:16:30.506Z,-2.03
2018-02-22T04:22:36.850Z,-1.96
2018-02-22T04:28:42.125Z,-1.95
2018-02-22T04:34:46.798Z,-1.98
2018-02-22T04:40:52.586Z,-2.14
2018-02-22T04:46:59.201Z,-2.21
2018-02-22T04:53:04.967Z,-2.24
2018-02-22T04:59:09.624Z,-2.20
2018-02-22T05:05:14.460Z,-1.88
2018-02-22T05:11:19.087Z,-1.76
2018-02-22T05:17:26.467Z,-1.67
2018-02-22T05:23:34.037Z,-1.51
2018-02-22T05:29:39.514Z,-1.27
2018-02-22T05:35:47.209Z,-1.43
2018-02-22T05:41:54.029Z,-1.52
2018-02-22T05:48:00.746Z,-1.74
2018-02-22T05:54:06.612Z,-1.87
2018-02-22T06:00:12.312Z,-1.97
2018-02-22T06:06:17.595Z,-2.08
2018-02-22T06:12:26.735Z,-2.05
2018-02-22T06:18:31.769Z,-1.87
2018-02-22T06:24:36.388Z,-1.72
2018-02-22T06:30:41.029Z,-1.58
2018-02-22T06:36:45.739Z,-1.51
2018-02-22T06:42:50.485Z,-1.46
2018-02-22T06:48:55.531Z,-1.38
2018-02-22T06:55:00.977Z,-1.34
2018-02-22T07:01:05.803Z,-1.39
2018-02-22T07:07:10.601Z,-1.28
2018-02-22T07:13:15.396Z,-1.29
2018-02-22T07:19:21.798Z,-1.28
2018-02-22T07:25:26.859Z,-1.14
2018-02-22T07:31:33.089Z,-0.97
2018-02-22T07:37:38.559Z,-0.94
2018-02-22T07:43:43.206Z,-0.80
2018-02-22T07:49:47.820Z,-0.68
2018-02-22T07:55:55.379Z,-0.62
2018-02-22T08:02:01.052Z,-0.57
2018-02-22T08:08:05.760Z,-0.61
2018-02-22T08:14:10.424Z,-0.46
2018-02-22T08:20:16.720Z,-0.37
2018-02-22T08:26:25.699Z,-0.21
2018-02-22T08:32:30.665Z,-0.02
2018-02-22T08:38:36.810Z,0.13
2018-02-22T08:44:41.967Z,0.19
2018-02-22T08:50:47.300Z,0.12
2018-02-22T08:56:54.191Z,0.30
2018-02-22T09:02:58.913Z,0.32
2018-02-22T09:09:03.521Z,0.50
2018-02-22T09:15:09.433Z,0.65
2018-02-22T09:21:15.218Z,0.81
2018-02-22T09:27:21.001Z,0.78
2018-02-22T09:33:25.570Z,0.89
2018-02-22T09:39:32.764Z,1.09
2018-02-22T09:45:39.137Z,1.34
2018-02-22T09:51:46.132Z,1.58
2018-02-22T09:57:51.593Z,1.75
2018-02-22T10:03:56.996Z,2.35
2018-02-22T10:10:01.674Z,2.36
2018-02-22T10:16:06.608Z,2.60
2018-02-22T10:22:11.283Z,2.85
2018-02-22T10:28:16.023Z,3.14
2018-02-22T10:34:26.878Z,3.22
2018-02-22T10:40:37.198Z,3.26
2018-02-22T10:46:46.687Z,3.25
2018-02-22T10:52:58.501Z,3.03
2018-02-22T10:59:03.210Z,2.71
2018-02-22T11:05:08.613Z,2.60
2018-02-22T11:11:14.071Z,2.71
2018-02-22T11:17:19.786Z,2.62
2018-02-22T11:23:25.699Z,2.65
2018-02-22T11:29:30.518Z,2.79
2018-02-22T11:35:36.012Z,2.98
2018-02-22T11:41:40.668Z,3.27
2018-02-22T11:47:48.436Z,3.08
2018-02-22T11:53:57.916Z,3.18
2018-02-22T12:00:05.388Z,3.12
2018-02-22T12:06:16.306Z,3.31
2018-02-22T12:12:24.028Z,3.26
2018-02-22T12:18:29.138Z,3.25
2018-02-22T12:24:33.752Z,3.55
2018-02-22T12:30:39.868Z,3.91
2018-02-22T12:36:55.859Z,4.53
2018-02-22T12:43:01.669Z,5.43
2018-02-22T12:49:32.834Z,7.21
2018-02-22T12:55:44.100Z,8.35
2018-02-22T13:01:51.514Z,8.44
2018-02-22T13:07:57.082Z,6.68
2018-02-22T13:14:08.144Z,5.91
2018-02-22T13:20:19.372Z,5.38
2018-02-22T13:26:31.197Z,5.63
2018-02-22T13:32:55.199Z,6.08
2018-02-22T13:39:18.975Z,5.66
2018-02-22T13:45:34.235Z,6.43
2018-02-22T13:51:39.644Z,6.79
2018-02-22T13:57:44.423Z,6.37
2018-02-22T14:03:52.434Z,6.55
2018-02-22T14:19:42.207Z,6.46
2018-02-22T14:25:46.929Z,5.89
2018-02-22T14:32:01.321Z,5.40
2018-02-22T14:54:21.470Z,3.88
2018-02-22T15:00:29.269Z,3.80
2018-02-22T15:22:49.464Z,2.98
2018-02-22T15:28:54.883Z,3.29
2018-02-22T15:34:59.568Z,3.48
2018-02-22T15:41:08.481Z,3.43
2018-02-22T15:47:13.351Z,3.62
2018-02-22T15:53:18.365Z,3.29
2018-02-22T15:59:23.971Z,2.90
2018-02-22T16:05:32.286Z,2.84
2018-02-22T16:11:37.316Z,2.97
2018-02-22T16:17:42.040Z,2.55
2018-02-22T16:23:46.649Z,2.14
2018-02-22T16:29:51.522Z,2.03
2018-02-22T16:35:56.150Z,1.75
2018-02-22T16:42:01.022Z,1.63
2018-02-22T16:48:05.612Z,1.45
2018-02-22T16:54:10.375Z,1.33
2018-02-22T17:00:17.470Z,1.19
2018-02-22T17:06:25.393Z,1.06
2018-02-22T17:12:30.074Z,0.78
2018-02-22T17:18:34.690Z,0.75
2018-02-22T17:24:40.142Z,0.69
2018-02-22T17:30:50.207Z,0.61
2018-02-22T17:37:10.549Z,0.50
2018-02-22T17:43:15.192Z,0.57
2018-02-22T17:49:23.821Z,0.60
2018-02-22T17:55:28.553Z,0.76
2018-02-22T18:01:33.226Z,0.87
2018-02-22T18:07:38.030Z,1.02
2018-02-22T18:13:45.049Z,1.13
2018-02-22T18:19:57.608Z,1.16
2018-02-22T18:26:03.041Z,1.19
2018-02-22T18:32:07.819Z,1.18
2018-02-22T18:38:12.567Z,1.03
2018-02-22T18:44:24.498Z,0.89
2018-02-22T18:50:30.661Z,0.86
2018-02-22T18:56:39.229Z,0.74
2018-02-22T19:02:44.079Z,0.73
2018-02-22T19:08:49.036Z,0.73
2018-02-22T19:14:57.467Z,0.47
2018-02-22T19:21:02.927Z,0.20
2018-02-22T19:27:07.600Z,0.04
2018-02-22T19:33:13.509Z,0.12
2018-02-22T19:39:19.430Z,0.01
2018-02-22T19:45:25.126Z,-0.08
2018-02-22T19:51:30.666Z,-0.18
2018-02-22T19:57:36.219Z,-0.38
2018-02-22T20:03:41.254Z,-0.35
2018-02-22T20:09:45.991Z,-0.23
2018-02-22T20:15:51.741Z,-0.09
2018-02-22T20:21:56.531Z,-0.03
2018-02-22T20:28:01.330Z,-0.05
2018-02-22T20:34:07.025Z,0.00
2018-02-22T20:40:11.939Z,-0.08
2018-02-22T20:46:16.699Z,-0.19
2018-02-22T20:52:23.631Z,-0.29
2018-02-22T20:58:36.725Z,-0.40
2018-02-22T21:04:42.964Z,-0.56
2018-02-22T21:10:50.320Z,-0.49
2018-02-22T21:16:57.149Z,-0.53
2018-02-22T21:23:04.051Z,-0.58
2018-02-22T21:29:08.879Z,-0.70
2018-02-22T21:35:14.283Z,-0.96
2018-02-22T21:41:19.786Z,-0.96
2018-02-22T21:47:24.468Z,-0.93
2018-02-22T21:53:29.108Z,-0.89
2018-02-22T21:59:33.775Z,-0.84
2018-02-22T22:05:38.539Z,-0.85
2018-02-22T22:11:45.220Z,-0.66
2018-02-22T22:17:50.175Z,-0.69
2018-02-22T22:23:54.879Z,-0.54
2018-02-22T22:30:01.604Z,-0.42
2018-02-22T22:36:08.573Z,-0.48
2018-02-22T22:42:14.089Z,-0.32
2018-02-22T22:48:19.120Z,-0.10
2018-02-22T22:54:24.142Z,-0.06
2018-02-22T23:00:28.750Z,0.02
2018-02-22T23:06:33.401Z,0.13
2018-02-22T23:12:38.866Z,0.18
2018-02-22T23:18:45.887Z,0.26
2018-02-22T23:24:56.451Z,0.45
2018-02-22T23:31:02.085Z,0.41
2018-02-22T23:37:06.748Z,0.52
2018-02-22T23:43:11.458Z,0.49
2018-02-22T23:49:16.374Z,0.53
2018-02-22T23:55:24.304Z,0.66
